createdAt,value
2018-08-03T00:00:35.391Z,22.40
2018-08-03T00:03:05.282Z,22.40
2018-08-03T00:05:35.166Z,22.40
2018-08-03T00:08:05.015Z,22.40
2018-08-03T00:10:34.878Z,22.30
2018-08-03T00:13:05.062Z,22.30
2018-08-03T00:15:34.918Z,22.30
2018-08-03T00:18:04.762Z,22.20
2018-08-03T00:20:34.610Z,22.20
2018-08-03T00:23:04.522Z,22.20
2018-08-03T00:25:34.354Z,22.10
2018-08-03T00:28:04.923Z,22.10
2018-08-03T00:30:35.117Z,22.10
2018-08-03T00:33:04.970Z,22.10
2018-08-03T00:35:34.846Z,22.00
2018-08-03T00:38:04.679Z,22.00
2018-08-03T00:40:34.544Z,21.90
2018-08-03T00:43:04.394Z,21.90
2018-08-03T00:45:34.237Z,21.90
2018-08-03T00:48:04.062Z,21.90
2018-08-03T00:50:33.916Z,21.90
2018-08-03T00:53:03.806Z,21.90
2018-08-03T00:55:33.632Z,21.90
2018-08-03T00:58:03.481Z,21.80
2018-08-03T01:00:33.686Z,21.90
2018-08-03T01:03:03.638Z,21.90
2018-08-03T01:05:33.517Z,21.90
2018-08-03T01:08:03.738Z,21.80
2018-08-03T01:10:33.587Z,21.80
2018-08-03T01:13:03.750Z,21.80
2018-08-03T01:15:33.955Z,21.80
2018-08-03T01:18:04.052Z,21.70
2018-08-03T01:20:33.907Z,21.70
2018-08-03T01:23:03.730Z,21.70
2018-08-03T01:25:33.595Z,21.70
2018-08-03T01:28:03.590Z,21.60
2018-08-03T01:30:33.458Z,21.60
2018-08-03T01:33:03.636Z,21.50
2018-08-03T01:35:33.783Z,21.50
2018-08-03T01:38:03.975Z,21.50
2018-08-03T01:40:33.846Z,21.50
2018-08-03T01:43:19.062Z,21.40
2018-08-03T01:45:48.953Z,21.40
2018-08-03T01:48:18.774Z,21.40
2018-08-03T01:50:48.645Z,21.40
2018-08-03T01:53:18.466Z,21.30
2018-08-03T01:55:48.326Z,21.30
2018-08-03T01:58:18.291Z,21.30
2018-08-03T02:00:48.178Z,21.30
2018-08-03T02:03:18.041Z,21.30
2018-08-03T02:05:48.086Z,21.30
2018-08-03T02:08:17.941Z,21.20
2018-08-03T02:10:48.094Z,21.20
2018-08-03T02:13:17.934Z,21.20
2018-08-03T02:15:47.892Z,21.20
2018-08-03T02:18:17.715Z,21.10
2018-08-03T02:20:47.914Z,21.10
2018-08-03T02:23:18.092Z,21.10
2018-08-03T02:25:48.250Z,21.10
2018-08-03T02:28:18.437Z,21.10
2018-08-03T02:30:48.303Z,21.10
2018-08-03T02:33:18.179Z,21.10
2018-08-03T02:35:48.259Z,21.00
2018-08-03T02:38:18.112Z,21.00
2018-08-03T02:40:47.963Z,21.00
2018-08-03T02:43:20.842Z,20.90
2018-08-03T02:45:50.700Z,20.90
2018-08-03T02:48:20.723Z,20.90
2018-08-03T02:50:50.878Z,20.90
2018-08-03T02:53:20.730Z,20.90
2018-08-03T02:55:50.923Z,20.80
2018-08-03T02:58:20.774Z,20.80
2018-08-03T03:00:50.922Z,20.80
2018-08-03T03:03:20.806Z,20.80
2018-08-03T03:05:50.642Z,20.70
2018-08-03T03:08:20.818Z,20.70
2018-08-03T03:10:50.934Z,20.70
2018-08-03T03:13:21.115Z,20.60
2018-08-03T03:15:51.251Z,20.60
2018-08-03T03:18:21.590Z,20.60
2018-08-03T03:20:51.734Z,20.60
2018-08-03T03:23:21.898Z,20.60
2018-08-03T03:25:52.134Z,20.60
2018-08-03T03:28:22.338Z,20.50
2018-08-03T03:30:52.488Z,20.50
2018-08-03T03:33:22.673Z,20.50
2018-08-03T03:35:53.291Z,20.50
2018-08-03T03:38:23.954Z,20.50
2018-08-03T03:40:54.110Z,20.50
2018-08-03T03:43:24.226Z,20.50
2018-08-03T03:45:54.571Z,20.50
2018-08-03T03:48:24.698Z,20.40
2018-08-03T03:50:54.880Z,20.40
2018-08-03T03:53:25.204Z,20.30
2018-08-03T03:55:55.714Z,20.30
2018-08-03T03:58:25.838Z,20.30
2018-08-03T04:00:56.337Z,20.30
2018-08-03T04:03:26.446Z,20.20
2018-08-03T04:05:56.595Z,20.30
2018-08-03T04:08:26.726Z,20.30
2018-08-03T04:10:56.943Z,20.30
2018-08-03T04:13:27.214Z,20.30
2018-08-03T04:15:57.364Z,20.30
2018-08-03T04:18:27.498Z,20.20
2018-08-03T04:20:57.667Z,20.20
2018-08-03T04:23:27.790Z,20.20
2018-08-03T04:25:58.311Z,20.20
2018-08-03T04:28:28.450Z,20.10
2018-08-03T04:30:58.639Z,20.10
2018-08-03T04:33:28.754Z,20.10
2018-08-03T04:35:59.279Z,20.10
2018-08-03T04:38:29.450Z,20.10
2018-08-03T04:40:59.967Z,20.10
2018-08-03T04:43:30.063Z,20.10
2018-08-03T04:46:00.246Z,20.10
2018-08-03T04:48:30.371Z,20.00
2018-08-03T04:51:00.510Z,20.10
2018-08-03T04:53:30.654Z,20.10
2018-08-03T04:56:01.079Z,20.10
2018-08-03T04:58:31.426Z,20.10
2018-08-03T05:01:01.590Z,20.10
2018-08-03T05:03:31.767Z,20.10
2018-08-03T05:06:02.043Z,20.10
2018-08-03T05:08:32.177Z,20.10
2018-08-03T05:11:02.310Z,20.20
2018-08-03T05:13:32.451Z,20.20
2018-08-03T05:16:02.933Z,20.20
2018-08-03T05:18:33.207Z,20.20
2018-08-03T05:21:03.368Z,20.20
2018-08-03T05:23:33.539Z,20.30
2018-08-03T05:26:04.034Z,20.30
2018-08-03T05:28:34.499Z,20.40
2018-08-03T05:31:04.647Z,20.40
2018-08-03T05:33:34.766Z,20.50
2018-08-03T05:36:05.318Z,20.50
2018-08-03T05:38:35.518Z,20.60
2018-08-03T05:41:05.646Z,20.60
2018-08-03T05:43:35.770Z,20.70
2018-08-03T05:46:06.234Z,20.80
2018-08-03T05:48:36.351Z,20.80
2018-08-03T05:51:06.667Z,20.90
2018-08-03T05:53:36.806Z,20.90
2018-08-03T05:56:07.327Z,21.00
2018-08-03T05:58:37.446Z,21.10
2018-08-03T06:01:07.934Z,21.20
2018-08-03T06:03:38.410Z,21.30
2018-08-03T06:06:08.580Z,21.40
2018-08-03T06:08:38.675Z,21.40
2018-08-03T06:11:08.811Z,21.50
2018-08-03T06:13:38.622Z,21.60
2018-08-03T06:16:09.121Z,21.60
2018-08-03T06:18:38.970Z,21.70
2018-08-03T06:21:09.102Z,21.80
2018-08-03T06:23:39.004Z,21.80
2018-08-03T06:26:09.186Z,21.90
2018-08-03T06:28:39.042Z,22.00
2018-08-03T06:31:08.919Z,22.10
2018-08-03T06:33:38.779Z,22.20
2018-08-03T06:36:08.982Z,22.30
2018-08-03T06:38:38.826Z,22.40
2018-08-03T06:41:09.046Z,22.50
2018-08-03T06:43:38.905Z,22.50
2018-08-03T06:46:09.042Z,22.60
2018-08-03T06:48:38.891Z,22.70
2018-08-03T06:51:08.752Z,22.80
2018-08-03T06:53:38.962Z,22.90
2018-08-03T06:56:08.969Z,22.90
2018-08-03T06:58:39.163Z,23.00
2018-08-03T07:01:09.238Z,23.10
2018-08-03T07:03:39.266Z,23.20
2018-08-03T07:06:09.122Z,23.30
2018-08-03T07:08:38.974Z,23.30
2018-08-03T07:11:08.802Z,23.40
2018-08-03T07:13:38.666Z,23.50
2018-08-03T07:16:08.538Z,23.60
2018-08-03T07:18:38.722Z,23.70
2018-08-03T07:21:08.942Z,23.70
2018-08-03T07:23:38.762Z,23.80
2018-08-03T07:26:08.666Z,23.90
2018-08-03T07:28:38.724Z,23.90
2018-08-03T07:31:08.606Z,23.90
2018-08-03T07:33:38.432Z,24.00
2018-08-03T07:36:08.822Z,24.10
2018-08-03T07:38:38.690Z,24.20
2018-08-03T07:41:09.555Z,24.20
2018-08-03T07:43:39.568Z,24.30
2018-08-03T07:46:09.924Z,24.30
2018-08-03T07:48:39.743Z,24.50
2018-08-03T07:51:09.780Z,24.60
2018-08-03T07:53:39.998Z,24.70
2018-08-03T07:56:10.210Z,24.70
2018-08-03T07:58:40.289Z,24.80
2018-08-03T08:01:10.155Z,24.80
2018-08-03T08:03:40.022Z,24.90
2018-08-03T08:06:09.872Z,25.00
2018-08-03T08:08:39.918Z,25.00
2018-08-03T08:11:09.778Z,25.00
2018-08-03T08:13:40.110Z,25.20
2018-08-03T08:16:09.978Z,25.20
2018-08-03T08:18:39.798Z,25.20
2018-08-03T08:21:09.651Z,25.30
2018-08-03T08:23:39.519Z,25.40
2018-08-03T08:26:09.441Z,25.50
2018-08-03T08:28:39.428Z,25.60
2018-08-03T08:31:09.293Z,25.70
2018-08-03T08:33:39.138Z,25.70
2018-08-03T08:36:08.963Z,25.80
2018-08-03T08:38:38.814Z,25.80
2018-08-03T08:41:08.686Z,25.90
2018-08-03T08:43:38.560Z,25.90
2018-08-03T08:46:08.570Z,25.90
2018-08-03T08:48:38.418Z,26.00
2018-08-03T08:51:08.495Z,26.10
2018-08-03T08:53:38.718Z,26.10
2018-08-03T08:56:08.578Z,26.20
2018-08-03T08:58:38.406Z,26.20
2018-08-03T09:01:08.283Z,26.20
2018-08-03T09:03:38.328Z,26.30
2018-08-03T09:06:08.195Z,26.30
2018-08-03T09:08:38.398Z,26.40
2018-08-03T09:11:08.866Z,26.50
2018-08-03T09:13:38.738Z,26.60
2018-08-03T09:16:08.974Z,26.60
2018-08-03T09:18:38.981Z,26.70
2018-08-03T09:21:08.999Z,26.80
2018-08-03T09:23:39.183Z,26.90
2018-08-03T09:26:09.378Z,27.00
2018-08-03T09:28:39.574Z,27.00
2018-08-03T09:31:09.448Z,27.10
2018-08-03T09:33:39.647Z,27.30
2018-08-03T09:36:09.527Z,27.40
2018-08-03T09:38:39.403Z,27.50
2018-08-03T09:41:09.266Z,27.60
2018-08-03T09:43:39.448Z,27.70
2018-08-03T09:46:09.299Z,27.80
2018-08-03T09:48:39.168Z,27.90
2018-08-03T09:51:09.509Z,28.10
2018-08-03T09:53:39.371Z,28.10
2018-08-03T09:56:09.602Z,28.20
2018-08-03T09:58:39.423Z,28.30
2018-08-03T10:01:10.320Z,28.30
2018-08-03T10:03:40.706Z,28.40
2018-08-03T10:06:11.461Z,28.50
2018-08-03T10:08:41.642Z,28.60
2018-08-03T10:11:11.859Z,28.60
2018-08-03T10:13:41.708Z,28.70
2018-08-03T10:16:11.554Z,28.80
2018-08-03T10:18:41.390Z,28.90
2018-08-03T10:21:11.266Z,28.90
2018-08-03T10:23:41.085Z,29.00
2018-08-03T10:26:10.934Z,29.10
2018-08-03T10:28:40.761Z,29.20
2018-08-03T10:31:10.617Z,29.30
2018-08-03T10:33:40.447Z,29.40
2018-08-03T10:36:10.316Z,29.50
2018-08-03T10:38:40.142Z,29.60
2018-08-03T10:41:10.009Z,29.70
2018-08-03T10:43:39.827Z,29.70
2018-08-03T10:46:09.730Z,29.80
2018-08-03T10:48:39.559Z,29.90
2018-08-03T10:51:09.702Z,30.00
2018-08-03T10:53:39.561Z,30.20
2018-08-03T10:56:09.411Z,30.30
2018-08-03T10:58:39.243Z,30.40
2018-08-03T11:01:09.170Z,30.40
2018-08-03T11:03:38.998Z,30.50
2018-08-03T11:06:08.854Z,30.60
2018-08-03T11:08:39.092Z,30.70
2018-08-03T11:11:08.914Z,30.80
2018-08-03T11:13:38.889Z,30.90
2018-08-03T11:16:09.250Z,30.90
2018-08-03T11:18:39.102Z,31.00
2018-08-03T11:21:08.963Z,31.00
2018-08-03T11:23:38.994Z,31.10
2018-08-03T11:26:08.859Z,31.20
2018-08-03T11:28:38.717Z,31.30
2018-08-03T11:31:08.561Z,31.40
2018-08-03T11:33:38.418Z,31.40
2018-08-03T11:36:08.625Z,31.50
2018-08-03T11:38:38.814Z,31.60
2018-08-03T11:41:08.722Z,31.70
2018-08-03T11:43:38.748Z,31.70
2018-08-03T11:46:08.967Z,31.80
2018-08-03T11:48:38.807Z,31.90
2018-08-03T11:51:08.815Z,32.00
2018-08-03T11:53:39.035Z,32.10
2018-08-03T11:56:09.062Z,32.20
2018-08-03T11:58:38.936Z,32.30
2018-08-03T12:01:09.007Z,32.40
2018-08-03T12:03:39.026Z,32.40
2018-08-03T12:06:08.854Z,32.50
2018-08-03T12:08:38.707Z,32.50
2018-08-03T12:11:08.574Z,32.50
2018-08-03T12:13:38.435Z,32.50
2018-08-03T12:16:08.286Z,32.60
2018-08-03T12:18:38.129Z,32.70
2018-08-03T12:21:08.310Z,32.80
2018-08-03T12:23:38.180Z,32.90
2018-08-03T12:26:08.034Z,33.00
2018-08-03T12:28:37.898Z,33.00
2018-08-03T12:31:07.792Z,33.20
2018-08-03T12:33:37.820Z,33.30
2018-08-03T12:38:43.823Z,33.40
2018-08-03T12:41:13.690Z,33.40
2018-08-03T12:43:43.506Z,33.40
2018-08-03T12:46:13.370Z,33.40
2018-08-03T12:48:43.203Z,33.40
2018-08-03T12:51:13.059Z,33.40
2018-08-03T12:53:42.906Z,33.40
2018-08-03T12:56:12.762Z,33.40
2018-08-03T12:58:42.574Z,33.40
2018-08-03T13:01:12.435Z,33.30
2018-08-03T13:03:42.478Z,33.40
2018-08-03T13:06:12.291Z,33.30
2018-08-03T13:08:42.183Z,33.30
2018-08-03T13:11:12.186Z,33.40
2018-08-03T13:13:42.045Z,33.50
2018-08-03T13:16:11.873Z,33.60
2018-08-03T13:18:41.932Z,33.80
2018-08-03T13:21:23.341Z,33.80
2018-08-03T13:23:56.746Z,33.90
2018-08-03T13:26:27.039Z,34.00
2018-08-03T13:28:57.512Z,34.10
2018-08-03T13:31:28.653Z,34.20
2018-08-03T13:33:58.514Z,34.20
2018-08-03T13:36:29.711Z,34.20
2018-08-03T13:38:59.936Z,34.20
2018-08-03T13:41:29.926Z,34.20
2018-08-03T13:44:00.088Z,34.20
2018-08-03T13:46:29.943Z,34.20
2018-08-03T13:48:59.754Z,34.30
2018-08-03T13:51:29.609Z,34.30
2018-08-03T13:53:59.490Z,34.40
2018-08-03T13:56:29.354Z,34.50
2018-08-03T13:58:59.167Z,34.50
2018-08-03T14:01:38.081Z,34.60
2018-08-03T14:06:37.577Z,34.70
2018-08-03T14:09:07.910Z,34.70
2018-08-03T14:11:37.746Z,34.70
2018-08-03T14:14:07.550Z,34.70
2018-08-03T14:16:37.735Z,34.80
2018-08-03T14:19:07.562Z,34.80
2018-08-03T14:21:37.411Z,34.70
2018-08-03T14:24:07.254Z,34.70
2018-08-03T14:26:37.070Z,34.70
2018-08-03T14:29:06.962Z,34.70
2018-08-03T14:31:36.853Z,34.80
2018-08-03T14:34:07.170Z,34.80
2018-08-03T14:36:37.002Z,34.70
2018-08-03T14:39:08.270Z,34.70
2018-08-03T14:41:38.511Z,34.70
2018-08-03T14:44:08.906Z,34.80
2018-08-03T14:46:39.779Z,34.80
2018-08-03T14:49:09.597Z,34.80
2018-08-03T14:51:39.826Z,34.80
2018-08-03T14:54:09.675Z,34.80
2018-08-03T14:56:39.535Z,34.80
2018-08-03T14:59:09.582Z,34.80
2018-08-03T15:01:39.407Z,34.80
2018-08-03T15:04:09.222Z,34.80
2018-08-03T15:06:39.070Z,34.80
2018-08-03T15:09:10.330Z,34.80
2018-08-03T15:11:40.534Z,34.70
2018-08-03T15:14:10.386Z,34.70
2018-08-03T15:16:40.218Z,34.70
2018-08-03T15:19:10.115Z,34.60
2018-08-03T15:21:39.964Z,34.60
2018-08-03T15:24:09.815Z,34.50
2018-08-03T15:26:39.654Z,34.50
2018-08-03T15:29:09.476Z,34.50
2018-08-03T15:31:39.318Z,34.40
2018-08-03T15:34:09.386Z,34.40
2018-08-03T15:36:39.243Z,34.40
2018-08-03T15:39:10.594Z,34.40
2018-08-03T15:41:40.619Z,34.30
2018-08-03T15:44:10.479Z,34.30
2018-08-03T15:46:40.326Z,34.30
2018-08-03T15:49:10.154Z,34.30
2018-08-03T15:51:40.035Z,34.30
2018-08-03T15:54:09.910Z,34.20
2018-08-03T15:56:40.545Z,34.20
2018-08-03T15:59:10.358Z,34.20
2018-08-03T16:01:40.226Z,34.20
2018-08-03T16:04:10.079Z,34.20
2018-08-03T16:06:39.963Z,34.20
2018-08-03T16:09:10.836Z,34.20
2018-08-03T16:11:41.061Z,34.10
2018-08-03T16:14:11.061Z,34.10
2018-08-03T16:16:40.891Z,34.00
2018-08-03T16:19:10.740Z,34.00
2018-08-03T16:21:40.802Z,34.00
2018-08-03T16:24:10.624Z,34.00
2018-08-03T16:26:40.478Z,33.90
2018-08-03T16:29:10.327Z,33.90
2018-08-03T16:31:40.158Z,33.90
2018-08-03T16:34:09.999Z,33.90
2018-08-03T16:36:39.806Z,33.80
2018-08-03T16:39:10.762Z,33.90
2018-08-03T16:41:40.616Z,33.80
2018-08-03T16:44:10.637Z,33.80
2018-08-03T16:46:40.489Z,33.90
2018-08-03T16:49:10.548Z,33.80
2018-08-03T16:51:40.550Z,33.80
2018-08-03T16:54:10.748Z,33.80
2018-08-03T16:56:40.602Z,33.80
2018-08-03T16:59:10.650Z,33.70
2018-08-03T17:01:40.484Z,33.70
2018-08-03T17:04:10.510Z,33.70
2018-08-03T17:06:40.346Z,33.70
2018-08-03T17:09:10.690Z,33.60
2018-08-03T17:11:40.775Z,33.60
2018-08-03T17:14:10.634Z,33.60
2018-08-03T17:16:40.798Z,33.50
2018-08-03T17:19:10.638Z,33.40
2018-08-03T17:21:40.479Z,33.40
2018-08-03T17:24:10.330Z,33.30
2018-08-03T17:26:40.158Z,33.30
2018-08-03T17:29:10.318Z,33.20
2018-08-03T17:31:40.234Z,33.20
2018-08-03T17:34:10.024Z,33.20
2018-08-03T17:36:40.210Z,33.10
2018-08-03T17:39:11.109Z,33.10
2018-08-03T17:41:41.016Z,33.00
2018-08-03T17:44:10.883Z,33.00
2018-08-03T17:46:41.087Z,32.90
2018-08-03T17:49:10.903Z,32.90
2018-08-03T17:51:40.746Z,32.90
2018-08-03T17:54:10.565Z,32.80
2018-08-03T17:56:40.756Z,32.80
2018-08-03T17:59:10.566Z,32.70
2018-08-03T18:01:40.472Z,32.70
2018-08-03T18:04:10.298Z,32.60
2018-08-03T18:06:40.314Z,32.50
2018-08-03T18:09:10.133Z,32.50
2018-08-03T18:11:39.990Z,32.40
2018-08-03T18:14:09.839Z,32.30
2018-08-03T18:16:40.835Z,32.30
2018-08-03T18:19:11.227Z,32.20
2018-08-03T18:21:41.918Z,32.20
2018-08-03T18:24:12.419Z,32.10
2018-08-03T18:26:43.184Z,32.00
2018-08-03T18:29:13.973Z,31.90
2018-08-03T18:31:44.725Z,31.90
2018-08-03T18:34:15.395Z,31.80
2018-08-03T18:36:47.057Z,31.70
2018-08-03T18:39:17.939Z,31.60
2018-08-03T18:41:48.034Z,31.50
2018-08-03T18:44:18.090Z,31.50
2018-08-03T18:46:48.309Z,31.40
2018-08-03T18:49:19.245Z,31.30
2018-08-03T18:51:50.104Z,31.30
2018-08-03T18:54:21.877Z,31.20
2018-08-03T18:56:52.794Z,31.20
2018-08-03T18:59:22.858Z,31.10
2018-08-03T19:01:54.249Z,31.00
2018-08-03T19:04:24.465Z,30.90
2018-08-03T19:06:54.319Z,30.80
2018-08-03T19:09:24.134Z,30.70
2018-08-03T19:11:55.052Z,30.70
2018-08-03T19:14:24.867Z,30.50
2018-08-03T19:16:54.715Z,30.50
2018-08-03T19:19:24.538Z,30.40
2018-08-03T19:21:54.466Z,30.30
2018-08-03T19:24:24.414Z,30.30
2018-08-03T19:26:54.965Z,30.10
2018-08-03T19:29:24.984Z,30.10
2018-08-03T19:31:54.890Z,30.10
2018-08-03T19:34:24.874Z,30.00
2018-08-03T19:36:54.934Z,30.00
2018-08-03T19:39:25.349Z,29.90
2018-08-03T19:41:55.210Z,29.90
2018-08-03T19:44:25.023Z,29.90
2018-08-03T19:46:55.079Z,29.80
2018-08-03T19:49:24.902Z,29.70
2018-08-03T19:51:54.956Z,29.60
2018-08-03T19:54:24.799Z,29.50
2018-08-03T19:56:54.843Z,29.40
2018-08-03T19:59:24.730Z,29.30
2018-08-03T20:01:54.686Z,29.20
2018-08-03T20:04:24.572Z,29.10
2018-08-03T20:06:54.811Z,29.00
2018-08-03T20:12:01.463Z,28.80
2018-08-03T20:14:31.296Z,28.80
2018-08-03T20:17:01.142Z,28.70
2018-08-03T20:19:30.966Z,28.60
2018-08-03T20:22:00.826Z,28.50
2018-08-03T20:24:30.815Z,28.40
2018-08-03T20:27:00.684Z,28.40
2018-08-03T20:29:30.543Z,28.30
2018-08-03T20:32:00.413Z,28.20
2018-08-03T20:34:30.270Z,28.10
2018-08-03T20:37:00.126Z,28.10
2018-08-03T20:39:29.946Z,28.00
2018-08-03T20:41:59.901Z,28.00
2018-08-03T20:44:30.522Z,27.90
2018-08-03T20:47:00.707Z,27.80
2018-08-03T20:49:30.546Z,27.80
2018-08-03T20:52:00.424Z,27.70
2018-08-03T20:54:30.490Z,27.70
2018-08-03T20:57:04.023Z,27.60
2018-08-03T20:59:39.079Z,27.50
2018-08-03T21:02:12.986Z,27.50
2018-08-03T21:04:45.400Z,27.30
2018-08-03T21:07:21.879Z,27.30
2018-08-03T21:09:57.451Z,27.20
2018-08-03T21:12:29.721Z,27.10
2018-08-03T21:15:03.173Z,27.00
2018-08-03T21:17:36.742Z,27.00
2018-08-03T21:20:11.470Z,26.90
2018-08-03T21:22:47.027Z,26.90
2018-08-03T21:25:21.470Z,26.80
2018-08-03T21:27:56.714Z,26.70
2018-08-03T21:30:31.541Z,26.60
2018-08-03T21:33:08.611Z,26.60
2018-08-03T21:35:46.074Z,26.50
2018-08-03T21:38:19.523Z,26.50
2018-08-03T21:40:54.586Z,26.40
2018-08-03T21:43:27.341Z,26.30
2018-08-03T21:46:04.699Z,26.20
2018-08-03T21:51:34.214Z,26.10
2018-08-03T21:54:04.465Z,26.00
2018-08-03T21:56:34.466Z,25.90
2018-08-03T21:59:04.370Z,25.90
2018-08-03T22:01:34.563Z,25.80
2018-08-03T22:04:04.443Z,25.80
2018-08-03T22:06:34.294Z,25.70
2018-08-03T22:09:06.143Z,25.70
2018-08-03T22:11:36.442Z,25.60
2018-08-03T22:14:07.019Z,25.60
2018-08-03T22:16:36.878Z,25.60
2018-08-03T22:19:06.708Z,25.60
2018-08-03T22:21:36.608Z,25.60
2018-08-03T22:24:06.801Z,25.60
2018-08-03T22:26:36.826Z,25.60
2018-08-03T22:29:06.700Z,25.50
2018-08-03T22:31:36.901Z,25.50
2018-08-03T22:34:06.803Z,25.50
2018-08-03T22:36:36.716Z,25.40
2018-08-03T22:39:07.047Z,25.40
2018-08-03T22:41:34.697Z,25.40
2018-08-03T22:44:02.709Z,25.30
2018-08-03T22:46:30.528Z,25.20
2018-08-03T22:48:58.239Z,25.20
2018-08-03T22:51:25.859Z,25.20
2018-08-03T22:53:53.540Z,25.10
2018-08-03T22:56:21.243Z,25.00
2018-08-03T22:58:48.916Z,25.00
2018-08-03T23:03:44.277Z,24.90
2018-08-03T23:06:11.883Z,24.90
2018-08-03T23:08:39.654Z,24.80
2018-08-03T23:11:07.291Z,24.80
2018-08-03T23:13:34.951Z,24.80
2018-08-03T23:16:02.629Z,24.70
2018-08-03T23:18:30.147Z,24.60
2018-08-03T23:20:57.644Z,24.60
2018-08-03T23:23:25.186Z,24.50
2018-08-03T23:25:52.738Z,24.50
2018-08-03T23:28:20.350Z,24.50
2018-08-03T23:30:47.899Z,24.40
2018-08-03T23:33:15.426Z,24.50
2018-08-03T23:35:42.959Z,24.40
2018-08-03T23:38:10.479Z,24.40
2018-08-03T23:40:38.028Z,24.40
2018-08-03T23:43:05.526Z,24.30
2018-08-03T23:45:33.062Z,24.40
2018-08-03T23:48:00.795Z,24.30
2018-08-03T23:50:28.323Z,24.30
2018-08-03T23:52:55.806Z,24.30
2018-08-03T23:55:23.362Z,24.30
2018-08-03T23:57:50.850Z,24.20
